Adel, Georgia
Current Conditions -  °F | °C
As of 12:58 AM on Thursday 23 Oct 2014 (Local Time) from KVAD Reporting Station
Clear Clear  
Wind Chill: 10°   Ceiling: Unl
Heat Index: 10°   Visibility: 10mi
Dew Point:   Wind: 2mph
Humidity: 81%   Direction: 350°N
Pressure: 30.07"   Gusts: NA
Location:  31.14°N, 83.42°W
Report Text: KVAD 230458Z AUTO 35002KT 10SM CLR 10/07 A3007 RMK AO2 SLP184 T01030072 402400101 $
Loading
Personal Weather Stations






























Interactive Weather Map
Tropical Storm Tracking
New forecast layout! Learn more

10-Day Weather Forecast

Advertisements
Track Severe Weather on mobile